sensor_id;sensor_type;location;lat;lon;timestamp;P1;durP1;ratioP1;P2;durP2;ratioP2
29700;SDS011;57917;51.380;-0.176;2024-03-02T00:03:55;6.63;;;1.98;;
29700;SDS011;57917;51.380;-0.176;2024-03-02T00:09:45;9.80;;;2.95;;
29700;SDS011;57917;51.380;-0.176;2024-03-02T00:15:42;15.73;;;5.18;;
29700;SDS011;57917;51.380;-0.176;2024-03-02T00:21:38;18.08;;;6.80;;
29700;SDS011;57917;51.380;-0.176;2024-03-02T00:27:28;15.63;;;5.13;;
29700;SDS011;57917;51.380;-0.176;2024-03-02T00:33:27;12.68;;;4.10;;
29700;SDS011;57917;51.380;-0.176;2024-03-02T00:39:42;17.75;;;4.18;;
29700;SDS011;57917;51.380;-0.176;2024-03-02T00:45:29;9.90;;;2.80;;
29700;SDS011;57917;51.380;-0.176;2024-03-02T00:51:27;11.40;;;3.10;;
29700;SDS011;57917;51.380;-0.176;2024-03-02T00:57:16;13.10;;;3.63;;
29700;SDS011;57917;51.380;-0.176;2024-03-02T01:03:03;8.88;;;3.22;;
29700;SDS011;57917;51.380;-0.176;2024-03-02T01:08:50;7.40;;;2.63;;
29700;SDS011;57917;51.380;-0.176;2024-03-02T01:14:39;7.38;;;2.28;;
29700;SDS011;57917;51.380;-0.176;2024-03-02T01:20:26;8.18;;;2.75;;
29700;SDS011;57917;51.380;-0.176;2024-03-02T01:26:16;7.53;;;2.55;;
29700;SDS011;57917;51.380;-0.176;2024-03-02T01:32:04;7.35;;;2.22;;
29700;SDS011;57917;51.380;-0.176;2024-03-02T01:37:52;7.75;;;2.42;;
29700;SDS011;57917;51.380;-0.176;2024-03-02T01:43:40;8.75;;;2.58;;
29700;SDS011;57917;51.380;-0.176;2024-03-02T01:49:28;11.27;;;3.50;;
29700;SDS011;57917;51.380;-0.176;2024-03-02T01:55:17;9.27;;;3.30;;
29700;SDS011;57917;51.380;-0.176;2024-03-02T02:01:04;15.25;;;4.53;;
29700;SDS011;57917;51.380;-0.176;2024-03-02T02:06:54;15.07;;;5.60;;
29700;SDS011;57917;51.380;-0.176;2024-03-02T02:12:43;16.77;;;5.57;;
29700;SDS011;57917;51.380;-0.176;2024-03-02T02:18:31;14.25;;;4.32;;
29700;SDS011;57917;51.380;-0.176;2024-03-02T02:24:20;12.25;;;4.47;;
29700;SDS011;57917;51.380;-0.176;2024-03-02T02:30:07;11.10;;;4.28;;
29700;SDS011;57917;51.380;-0.176;2024-03-02T02:35:54;10.00;;;3.88;;
29700;SDS011;57917;51.380;-0.176;2024-03-02T02:41:41;14.80;;;4.35;;
29700;SDS011;57917;51.380;-0.176;2024-03-02T02:47:28;17.50;;;7.20;;
29700;SDS011;57917;51.380;-0.176;2024-03-02T02:53:22;8.73;;;2.67;;
29700;SDS011;57917;51.380;-0.176;2024-03-02T02:59:12;15.90;;;5.30;;
29700;SDS011;57917;51.380;-0.176;2024-03-02T03:05:01;13.00;;;4.47;;
29700;SDS011;57917;51.380;-0.176;2024-03-02T03:10:48;9.32;;;3.47;;
29700;SDS011;57917;51.380;-0.176;2024-03-02T03:16:57;29.48;;;6.20;;
29700;SDS011;57917;51.380;-0.176;2024-03-02T03:22:44;10.63;;;3.20;;
29700;SDS011;57917;51.380;-0.176;2024-03-02T03:28:31;8.02;;;2.78;;
29700;SDS011;57917;51.380;-0.176;2024-03-02T03:34:17;12.18;;;3.58;;
29700;SDS011;57917;51.380;-0.176;2024-03-02T03:40:06;10.52;;;3.78;;
29700;SDS011;57917;51.380;-0.176;2024-03-02T03:46:00;9.27;;;3.25;;
29700;SDS011;57917;51.380;-0.176;2024-03-02T03:51:50;17.10;;;5.53;;
29700;SDS011;57917;51.380;-0.176;2024-03-02T04:20:58;22.95;;;6.53;;
29700;SDS011;57917;51.380;-0.176;2024-03-02T04:34:02;16.23;;;5.60;;
29700;SDS011;57917;51.380;-0.176;2024-03-02T04:39:50;13.80;;;4.10;;
29700;SDS011;57917;51.380;-0.176;2024-03-02T04:45:37;11.80;;;3.80;;
29700;SDS011;57917;51.380;-0.176;2024-03-02T04:51:27;22.38;;;7.05;;
29700;SDS011;57917;51.380;-0.176;2024-03-02T04:57:14;11.85;;;4.47;;
29700;SDS011;57917;51.380;-0.176;2024-03-02T05:03:09;13.13;;;5.22;;
29700;SDS011;57917;51.380;-0.176;2024-03-02T05:08:56;10.15;;;3.20;;
29700;SDS011;57917;51.380;-0.176;2024-03-02T05:14:43;17.15;;;3.35;;
29700;SDS011;57917;51.380;-0.176;2024-03-02T05:20:30;10.52;;;4.30;;
29700;SDS011;57917;51.380;-0.176;2024-03-02T05:26:17;17.67;;;6.25;;
29700;SDS011;57917;51.380;-0.176;2024-03-02T05:32:04;15.80;;;5.38;;
29700;SDS011;57917;51.380;-0.176;2024-03-02T05:37:51;10.52;;;3.38;;
29700;SDS011;57917;51.380;-0.176;2024-03-02T05:43:38;18.70;;;5.50;;
29700;SDS011;57917;51.380;-0.176;2024-03-02T05:49:28;14.00;;;5.05;;
29700;SDS011;57917;51.380;-0.176;2024-03-02T05:55:17;12.65;;;4.38;;
29700;SDS011;57917;51.380;-0.176;2024-03-02T06:01:04;10.02;;;3.25;;
29700;SDS011;57917;51.380;-0.176;2024-03-02T06:06:52;11.70;;;4.40;;
29700;SDS011;57917;51.380;-0.176;2024-03-02T06:12:41;19.38;;;5.13;;
29700;SDS011;57917;51.380;-0.176;2024-03-02T06:18:28;14.32;;;5.13;;
29700;SDS011;57917;51.380;-0.176;2024-03-02T06:24:15;19.80;;;4.90;;
29700;SDS011;57917;51.380;-0.176;2024-03-02T06:30:02;25.38;;;7.03;;
29700;SDS011;57917;51.380;-0.176;2024-03-02T06:35:53;19.17;;;7.55;;
29700;SDS011;57917;51.380;-0.176;2024-03-02T06:41:40;16.85;;;5.93;;
29700;SDS011;57917;51.380;-0.176;2024-03-02T06:47:29;11.48;;;4.30;;
29700;SDS011;57917;51.380;-0.176;2024-03-02T06:53:17;12.95;;;4.63;;
29700;SDS011;57917;51.380;-0.176;2024-03-02T06:59:04;12.40;;;5.15;;
29700;SDS011;57917;51.380;-0.176;2024-03-02T07:04:56;25.73;;;7.82;;
29700;SDS011;57917;51.380;-0.176;2024-03-02T07:10:43;11.95;;;4.80;;
29700;SDS011;57917;51.380;-0.176;2024-03-02T07:16:30;16.05;;;6.28;;
29700;SDS011;57917;51.380;-0.176;2024-03-02T07:22:22;14.57;;;5.15;;
29700;SDS011;57917;51.380;-0.176;2024-03-02T07:28:14;15.82;;;7.05;;
29700;SDS011;57917;51.380;-0.176;2024-03-02T07:34:01;18.95;;;8.32;;
29700;SDS011;57917;51.380;-0.176;2024-03-02T07:39:54;13.73;;;5.38;;
29700;SDS011;57917;51.380;-0.176;2024-03-02T07:45:42;18.05;;;5.13;;
29700;SDS011;57917;51.380;-0.176;2024-03-02T07:51:28;10.88;;;4.32;;
29700;SDS011;57917;51.380;-0.176;2024-03-02T07:57:28;14.25;;;5.75;;
29700;SDS011;57917;51.380;-0.176;2024-03-02T08:03:21;19.65;;;7.82;;
29700;SDS011;57917;51.380;-0.176;2024-03-02T08:09:09;13.70;;;6.03;;
29700;SDS011;57917;51.380;-0.176;2024-03-02T08:14:56;30.27;;;5.07;;
29700;SDS011;57917;51.380;-0.176;2024-03-02T08:20:46;14.90;;;5.07;;
29700;SDS011;57917;51.380;-0.176;2024-03-02T08:26:36;17.30;;;6.60;;
29700;SDS011;57917;51.380;-0.176;2024-03-02T08:32:23;19.58;;;6.43;;
29700;SDS011;57917;51.380;-0.176;2024-03-02T08:38:10;16.10;;;7.25;;
29700;SDS011;57917;51.380;-0.176;2024-03-02T08:43:59;74.35;;;23.70;;
29700;SDS011;57917;51.380;-0.176;2024-03-02T08:49:50;14.88;;;6.57;;
29700;SDS011;57917;51.380;-0.176;2024-03-02T08:55:48;15.80;;;6.90;;
29700;SDS011;57917;51.380;-0.176;2024-03-02T09:01:38;23.63;;;7.28;;
29700;SDS011;57917;51.380;-0.176;2024-03-02T09:07:29;15.00;;;5.20;;
29700;SDS011;57917;51.380;-0.176;2024-03-02T09:13:16;14.98;;;4.95;;
29700;SDS011;57917;51.380;-0.176;2024-03-02T09:19:03;17.58;;;5.25;;
29700;SDS011;57917;51.380;-0.176;2024-03-02T09:24:50;19.38;;;7.90;;
29700;SDS011;57917;51.380;-0.176;2024-03-02T09:30:39;15.38;;;5.85;;
29700;SDS011;57917;51.380;-0.176;2024-03-02T09:36:26;12.93;;;4.72;;
29700;SDS011;57917;51.380;-0.176;2024-03-02T09:42:16;12.45;;;5.68;;
29700;SDS011;57917;51.380;-0.176;2024-03-02T09:48:03;13.45;;;6.53;;
29700;SDS011;57917;51.380;-0.176;2024-03-02T09:53:50;12.40;;;5.07;;
29700;SDS011;57917;51.380;-0.176;2024-03-02T09:59:37;8.65;;;3.53;;
29700;SDS011;57917;51.380;-0.176;2024-03-02T10:05:26;12.75;;;5.03;;
29700;SDS011;57917;51.380;-0.176;2024-03-02T10:11:34;16.42;;;6.32;;
29700;SDS011;57917;51.380;-0.176;2024-03-02T10:17:40;16.05;;;6.18;;
29700;SDS011;57917;51.380;-0.176;2024-03-02T10:23:56;13.85;;;5.45;;
29700;SDS011;57917;51.380;-0.176;2024-03-02T10:29:55;18.08;;;8.38;;
29700;SDS011;57917;51.380;-0.176;2024-03-02T10:35:49;23.13;;;5.72;;
29700;SDS011;57917;51.380;-0.176;2024-03-02T10:41:39;14.23;;;3.88;;
29700;SDS011;57917;51.380;-0.176;2024-03-02T10:47:27;14.68;;;4.90;;
29700;SDS011;57917;51.380;-0.176;2024-03-02T10:53:30;13.60;;;4.38;;
29700;SDS011;57917;51.380;-0.176;2024-03-02T10:59:32;12.85;;;4.38;;
29700;SDS011;57917;51.380;-0.176;2024-03-02T11:05:28;14.98;;;4.60;;
29700;SDS011;57917;51.380;-0.176;2024-03-02T11:11:28;11.85;;;4.32;;
29700;SDS011;57917;51.380;-0.176;2024-03-02T11:17:24;8.80;;;3.78;;
29700;SDS011;57917;51.380;-0.176;2024-03-02T11:23:12;12.95;;;4.80;;
29700;SDS011;57917;51.380;-0.176;2024-03-02T11:29:02;18.40;;;6.97;;
29700;SDS011;57917;51.380;-0.176;2024-03-02T11:34:50;12.57;;;5.32;;
29700;SDS011;57917;51.380;-0.176;2024-03-02T11:40:48;10.95;;;3.83;;
29700;SDS011;57917;51.380;-0.176;2024-03-02T11:46:40;13.65;;;5.25;;
29700;SDS011;57917;51.380;-0.176;2024-03-02T11:52:35;8.77;;;3.35;;
29700;SDS011;57917;51.380;-0.176;2024-03-02T11:58:30;10.95;;;3.45;;
29700;SDS011;57917;51.380;-0.176;2024-03-02T12:04:21;8.73;;;2.67;;
29700;SDS011;57917;51.380;-0.176;2024-03-02T12:10:15;10.30;;;4.90;;
29700;SDS011;57917;51.380;-0.176;2024-03-02T12:16:22;10.20;;;3.42;;
29700;SDS011;57917;51.380;-0.176;2024-03-02T12:22:21;12.00;;;4.47;;
29700;SDS011;57917;51.380;-0.176;2024-03-02T12:28:11;7.07;;;2.58;;
29700;SDS011;57917;51.380;-0.176;2024-03-02T12:33:58;6.85;;;2.50;;
29700;SDS011;57917;51.380;-0.176;2024-03-02T12:39:57;5.10;;;1.83;;
29700;SDS011;57917;51.380;-0.176;2024-03-02T12:46:10;7.60;;;1.75;;
29700;SDS011;57917;51.380;-0.176;2024-03-02T13:06:47;3.92;;;1.58;;
29700;SDS011;57917;51.380;-0.176;2024-03-02T13:12:53;3.80;;;1.55;;
29700;SDS011;57917;51.380;-0.176;2024-03-02T13:18:53;4.38;;;1.92;;
29700;SDS011;57917;51.380;-0.176;2024-03-02T13:24:43;4.78;;;1.63;;
29700;SDS011;57917;51.380;-0.176;2024-03-02T13:30:30;3.53;;;1.48;;
29700;SDS011;57917;51.380;-0.176;2024-03-02T13:36:19;7.10;;;2.60;;
29700;SDS011;57917;51.380;-0.176;2024-03-02T13:42:30;12.75;;;5.57;;
29700;SDS011;57917;51.380;-0.176;2024-03-02T13:48:19;2.20;;;1.23;;
29700;SDS011;57917;51.380;-0.176;2024-03-02T13:55:04;8.25;;;3.08;;
29700;SDS011;57917;51.380;-0.176;2024-03-02T14:01:49;3.92;;;1.65;;
29700;SDS011;57917;51.380;-0.176;2024-03-02T14:07:40;5.80;;;2.22;;
29700;SDS011;57917;51.380;-0.176;2024-03-02T14:13:29;8.68;;;3.35;;
29700;SDS011;57917;51.380;-0.176;2024-03-02T14:19:18;7.45;;;2.42;;
29700;SDS011;57917;51.380;-0.176;2024-03-02T14:25:18;8.98;;;4.35;;
29700;SDS011;57917;51.380;-0.176;2024-03-02T14:31:08;4.28;;;1.73;;
29700;SDS011;57917;51.380;-0.176;2024-03-02T14:36:59;6.13;;;2.05;;
29700;SDS011;57917;51.380;-0.176;2024-03-02T14:42:50;6.68;;;2.33;;
29700;SDS011;57917;51.380;-0.176;2024-03-02T14:48:40;6.80;;;2.65;;
29700;SDS011;57917;51.380;-0.176;2024-03-02T14:54:38;4.53;;;1.85;;
29700;SDS011;57917;51.380;-0.176;2024-03-02T15:00:25;5.07;;;2.05;;
29700;SDS011;57917;51.380;-0.176;2024-03-02T15:06:19;10.73;;;5.32;;
29700;SDS011;57917;51.380;-0.176;2024-03-02T15:12:17;6.65;;;2.40;;
29700;SDS011;57917;51.380;-0.176;2024-03-02T15:18:25;5.97;;;2.17;;
29700;SDS011;57917;51.380;-0.176;2024-03-02T15:24:18;4.85;;;1.80;;
29700;SDS011;57917;51.380;-0.176;2024-03-02T15:30:07;7.13;;;3.17;;
29700;SDS011;57917;51.380;-0.176;2024-03-02T15:36:34;4.15;;;1.70;;
29700;SDS011;57917;51.380;-0.176;2024-03-02T15:42:26;6.75;;;2.25;;
29700;SDS011;57917;51.380;-0.176;2024-03-02T15:48:42;5.88;;;2.10;;
29700;SDS011;57917;51.380;-0.176;2024-03-02T15:54:34;6.15;;;2.75;;
29700;SDS011;57917;51.380;-0.176;2024-03-02T16:00:32;11.60;;;2.22;;
29700;SDS011;57917;51.380;-0.176;2024-03-02T16:06:26;7.05;;;2.55;;
29700;SDS011;57917;51.380;-0.176;2024-03-02T16:12:13;4.75;;;1.85;;
29700;SDS011;57917;51.380;-0.176;2024-03-02T16:18:02;6.95;;;2.28;;
29700;SDS011;57917;51.380;-0.176;2024-03-02T16:23:50;9.73;;;2.95;;
29700;SDS011;57917;51.380;-0.176;2024-03-02T16:29:45;8.82;;;2.95;;
29700;SDS011;57917;51.380;-0.176;2024-03-02T16:35:34;6.78;;;2.47;;
29700;SDS011;57917;51.380;-0.176;2024-03-02T16:41:24;8.35;;;3.13;;
29700;SDS011;57917;51.380;-0.176;2024-03-02T16:47:16;7.33;;;2.27;;
29700;SDS011;57917;51.380;-0.176;2024-03-02T16:53:03;12.55;;;3.80;;
29700;SDS011;57917;51.380;-0.176;2024-03-02T16:58:53;10.45;;;3.28;;
29700;SDS011;57917;51.380;-0.176;2024-03-02T17:04:40;9.85;;;3.03;;
29700;SDS011;57917;51.380;-0.176;2024-03-02T17:10:33;9.40;;;2.83;;
29700;SDS011;57917;51.380;-0.176;2024-03-02T17:16:32;13.82;;;3.50;;
29700;SDS011;57917;51.380;-0.176;2024-03-02T17:22:29;5.95;;;2.28;;
29700;SDS011;57917;51.380;-0.176;2024-03-02T17:28:29;8.90;;;2.85;;
29700;SDS011;57917;51.380;-0.176;2024-03-02T17:34:19;10.40;;;3.65;;
29700;SDS011;57917;51.380;-0.176;2024-03-02T17:40:10;10.00;;;3.67;;
29700;SDS011;57917;51.380;-0.176;2024-03-02T17:46:04;18.88;;;4.22;;
29700;SDS011;57917;51.380;-0.176;2024-03-02T17:51:59;20.13;;;8.95;;
29700;SDS011;57917;51.380;-0.176;2024-03-02T17:57:58;13.55;;;5.78;;
29700;SDS011;57917;51.380;-0.176;2024-03-02T18:03:46;10.45;;;4.15;;
29700;SDS011;57917;51.380;-0.176;2024-03-02T18:09:37;8.15;;;3.47;;
29700;SDS011;57917;51.380;-0.176;2024-03-02T18:15:24;9.15;;;3.72;;
29700;SDS011;57917;51.380;-0.176;2024-03-02T18:21:14;12.15;;;7.15;;
29700;SDS011;57917;51.380;-0.176;2024-03-02T18:27:05;16.23;;;8.40;;
29700;SDS011;57917;51.380;-0.176;2024-03-02T18:32:52;10.88;;;4.55;;
29700;SDS011;57917;51.380;-0.176;2024-03-02T18:38:42;15.52;;;5.55;;
29700;SDS011;57917;51.380;-0.176;2024-03-02T18:44:30;15.18;;;7.90;;
29700;SDS011;57917;51.380;-0.176;2024-03-02T18:50:20;38.13;;;19.73;;
29700;SDS011;57917;51.380;-0.176;2024-03-02T18:56:19;13.20;;;5.05;;
29700;SDS011;57917;51.380;-0.176;2024-03-02T19:02:19;14.77;;;6.18;;
29700;SDS011;57917;51.380;-0.176;2024-03-02T19:08:16;20.02;;;9.45;;
29700;SDS011;57917;51.380;-0.176;2024-03-02T19:14:06;10.38;;;5.00;;
29700;SDS011;57917;51.380;-0.176;2024-03-02T19:19:53;31.15;;;18.55;;
29700;SDS011;57917;51.380;-0.176;2024-03-02T19:25:39;27.15;;;13.95;;
29700;SDS011;57917;51.380;-0.176;2024-03-02T19:31:27;10.68;;;4.05;;
29700;SDS011;57917;51.380;-0.176;2024-03-02T19:37:23;14.38;;;6.05;;
29700;SDS011;57917;51.380;-0.176;2024-03-02T19:43:13;10.88;;;3.85;;
29700;SDS011;57917;51.380;-0.176;2024-03-02T19:49:15;23.63;;;8.73;;
29700;SDS011;57917;51.380;-0.176;2024-03-02T19:55:57;13.68;;;5.68;;
29700;SDS011;57917;51.380;-0.176;2024-03-02T20:10:42;14.13;;;4.60;;
29700;SDS011;57917;51.380;-0.176;2024-03-02T20:17:18;14.45;;;5.18;;
29700;SDS011;57917;51.380;-0.176;2024-03-02T20:23:24;10.15;;;3.55;;
29700;SDS011;57917;51.380;-0.176;2024-03-02T20:29:41;7.55;;;2.55;;
29700;SDS011;57917;51.380;-0.176;2024-03-02T20:35:54;196.25;;;60.65;;
29700;SDS011;57917;51.380;-0.176;2024-03-02T20:41:49;101.50;;;46.60;;
29700;SDS011;57917;51.380;-0.176;2024-03-02T20:47:39;84.57;;;42.78;;
29700;SDS011;57917;51.380;-0.176;2024-03-02T20:53:38;131.87;;;52.27;;
29700;SDS011;57917;51.380;-0.176;2024-03-02T20:59:27;187.43;;;61.45;;
29700;SDS011;57917;51.380;-0.176;2024-03-02T21:06:03;137.00;;;53.95;;
29700;SDS011;57917;51.380;-0.176;2024-03-02T21:11:51;213.85;;;66.15;;
29700;SDS011;57917;51.380;-0.176;2024-03-02T21:17:51;226.45;;;63.13;;
29700;SDS011;57917;51.380;-0.176;2024-03-02T21:23:50;196.65;;;61.05;;
29700;SDS011;57917;51.380;-0.176;2024-03-02T21:29:45;147.45;;;55.33;;
29700;SDS011;57917;51.380;-0.176;2024-03-02T21:42:46;131.38;;;49.25;;
29700;SDS011;57917;51.380;-0.176;2024-03-02T21:48:43;116.32;;;48.65;;
29700;SDS011;57917;51.380;-0.176;2024-03-02T21:54:30;79.68;;;39.30;;
29700;SDS011;57917;51.380;-0.176;2024-03-02T22:00:22;53.33;;;29.83;;
29700;SDS011;57917;51.380;-0.176;2024-03-02T22:06:14;86.28;;;41.22;;
29700;SDS011;57917;51.380;-0.176;2024-03-02T22:12:09;67.60;;;34.90;;
29700;SDS011;57917;51.380;-0.176;2024-03-02T22:18:05;67.50;;;35.90;;
29700;SDS011;57917;51.380;-0.176;2024-03-02T22:24:03;98.88;;;44.65;;
29700;SDS011;57917;51.380;-0.176;2024-03-02T22:30:07;122.28;;;50.00;;
29700;SDS011;57917;51.380;-0.176;2024-03-02T22:36:28;125.25;;;50.72;;
29700;SDS011;57917;51.380;-0.176;2024-03-02T22:42:20;181.10;;;55.63;;
29700;SDS011;57917;51.380;-0.176;2024-03-02T22:48:07;102.80;;;44.88;;
29700;SDS011;57917;51.380;-0.176;2024-03-02T22:54:16;110.57;;;45.88;;
29700;SDS011;57917;51.380;-0.176;2024-03-02T23:00:29;92.65;;;41.90;;
29700;SDS011;57917;51.380;-0.176;2024-03-02T23:06:44;111.35;;;47.67;;
29700;SDS011;57917;51.380;-0.176;2024-03-02T23:12:31;90.28;;;43.20;;
29700;SDS011;57917;51.380;-0.176;2024-03-02T23:18:39;82.50;;;41.20;;
29700;SDS011;57917;51.380;-0.176;2024-03-02T23:31:24;90.82;;;42.65;;
29700;SDS011;57917;51.380;-0.176;2024-03-02T23:37:11;107.75;;;47.17;;
29700;SDS011;57917;51.380;-0.176;2024-03-02T23:43:00;102.40;;;45.15;;
29700;SDS011;57917;51.380;-0.176;2024-03-02T23:48:54;98.50;;;45.60;;
29700;SDS011;57917;51.380;-0.176;2024-03-02T23:54:42;77.93;;;39.28;;
